Kingston, Rhode Island
Current Conditions -  °F | °C
As of 4:53 AM on Tuesday 27 Jan 2015 (Local Time) from KUUU Reporting Station
Moderate Fog Moderate Fog  
Wind Chill: -3°   Ceiling: 400
Heat Index: 17°   Visibility: 0.25mi
Dew Point: 14°   Wind: 31mph
Humidity: 88%   Direction: 350°N
Pressure: 29.43"   Gusts: 51mph
Location:  41.48°N, 71.52°W
Report Text: KUUU 270953Z AUTO 35027G44KT 1/4SM FZFG VV004 M08/M10 A2943 RMK AO2 PK WND 36046/0932 SLP966 T10831100 PWINO FZRANO $
Loading
Personal Weather Stations






























Interactive Weather Map New forecast layout! Learn more

10-Day Weather Forecast

Advertisements
Track Severe Weather on mobile